createdAt,value
2018-10-09T00:00:31.343Z,96128.00
2018-10-09T00:01:08.814Z,96130.00
2018-10-09T00:01:46.426Z,96128.00
2018-10-09T00:02:24.395Z,96133.00
2018-10-09T00:03:02.100Z,96131.00
2018-10-09T00:03:39.843Z,96130.00
2018-10-09T00:04:17.585Z,96131.00
2018-10-09T00:04:55.363Z,96133.00
2018-10-09T00:05:32.952Z,96130.00
2018-10-09T00:06:11.061Z,96132.00
2018-10-09T00:06:48.818Z,96130.00
2018-10-09T00:07:26.570Z,96128.00
2018-10-09T00:08:04.322Z,96131.00
2018-10-09T00:08:41.933Z,96130.00
2018-10-09T00:09:19.551Z,96131.00
2018-10-09T00:09:57.341Z,96128.00
2018-10-09T00:10:35.313Z,96135.00
2018-10-09T00:11:13.019Z,96132.00
2018-10-09T00:11:50.889Z,96132.00
2018-10-09T00:12:28.739Z,96138.00
2018-10-09T00:13:06.777Z,96138.00
2018-10-09T00:13:44.517Z,96139.00
2018-10-09T00:14:22.213Z,96135.00
2018-10-09T00:15:00.138Z,96139.00
2018-10-09T00:15:37.867Z,96141.00
2018-10-09T00:16:15.608Z,96141.00
2018-10-09T00:16:53.255Z,96138.00
2018-10-09T00:17:30.946Z,96147.00
2018-10-09T00:18:08.893Z,96144.00
2018-10-09T00:18:46.456Z,96144.00
2018-10-09T00:19:24.319Z,96137.00
2018-10-09T00:20:01.929Z,96138.00
2018-10-09T00:20:39.592Z,96137.00
2018-10-09T00:21:17.421Z,96142.00
2018-10-09T00:21:55.172Z,96143.00
2018-10-09T00:22:33.203Z,96142.00
2018-10-09T00:23:10.857Z,96138.00
2018-10-09T00:23:48.788Z,96142.00
2018-10-09T00:24:26.231Z,96142.00
2018-10-09T00:25:03.863Z,96140.00
2018-10-09T00:25:41.292Z,96142.00
2018-10-09T00:26:19.181Z,96139.00
2018-10-09T00:26:57.076Z,96139.00
2018-10-09T00:27:37.860Z,96135.00
2018-10-09T00:28:15.246Z,96140.00
2018-10-09T00:28:53.040Z,96142.00
2018-10-09T00:29:30.689Z,96143.00
2018-10-09T00:30:08.418Z,96143.00
2018-10-09T00:30:46.388Z,96137.00
2018-10-09T00:31:24.200Z,96143.00
2018-10-09T00:32:01.799Z,96138.00
2018-10-09T00:32:42.649Z,96134.00
2018-10-09T00:33:20.307Z,96139.00
2018-10-09T00:33:57.928Z,96137.00
2018-10-09T00:34:36.117Z,96139.00
2018-10-09T00:35:14.068Z,96135.00
2018-10-09T00:35:51.800Z,96132.00
2018-10-09T00:36:29.573Z,96131.00
2018-10-09T00:37:07.371Z,96132.00
2018-10-09T00:37:44.990Z,96135.00
2018-10-09T00:38:22.629Z,96134.00
2018-10-09T00:39:00.398Z,96136.00
2018-10-09T00:39:38.295Z,96134.00
2018-10-09T00:40:16.283Z,96133.00
2018-10-09T00:40:53.975Z,96136.00
2018-10-09T00:41:32.049Z,96133.00
2018-10-09T00:42:09.778Z,96134.00
2018-10-09T00:42:47.867Z,96136.00
2018-10-09T00:43:25.340Z,96136.00
2018-10-09T00:44:03.445Z,96136.00
2018-10-09T00:44:41.077Z,96136.00
2018-10-09T00:45:18.958Z,96137.00
2018-10-09T00:45:56.852Z,96135.00
2018-10-09T00:46:35.016Z,96138.00
2018-10-09T00:47:12.688Z,96137.00
2018-10-09T00:47:50.248Z,96141.00
2018-10-09T00:48:27.879Z,96139.00
2018-10-09T00:49:05.588Z,96140.00
2018-10-09T00:49:43.138Z,96137.00
2018-10-09T00:50:20.857Z,96139.00
2018-10-09T00:50:58.501Z,96142.00
2018-10-09T00:51:36.242Z,96135.00
2018-10-09T00:52:13.944Z,96139.00
2018-10-09T00:52:51.412Z,96138.00
2018-10-09T00:53:29.028Z,96135.00
2018-10-09T00:54:06.979Z,96138.00
2018-10-09T00:54:44.589Z,96136.00
2018-10-09T00:55:22.117Z,96138.00
2018-10-09T00:55:59.654Z,96138.00
2018-10-09T00:56:37.619Z,96139.00
2018-10-09T00:57:15.299Z,96141.00
2018-10-09T00:57:53.189Z,96136.00
2018-10-09T00:58:30.795Z,96144.00
2018-10-09T00:59:08.581Z,96139.00
2018-10-09T00:59:46.206Z,96143.00
2018-10-09T01:00:23.986Z,96142.00
2018-10-09T01:01:01.883Z,96139.00
2018-10-09T01:01:39.781Z,96148.00
2018-10-09T01:02:17.497Z,96142.00
2018-10-09T01:02:55.006Z,96144.00
2018-10-09T01:03:32.821Z,96143.00
2018-10-09T01:04:10.352Z,96141.00
2018-10-09T01:04:48.127Z,96138.00
2018-10-09T01:05:25.711Z,96141.00
2018-10-09T01:06:03.269Z,96138.00
2018-10-09T01:06:41.073Z,96137.00
2018-10-09T01:07:18.658Z,96141.00
2018-10-09T01:07:56.305Z,96138.00
2018-10-09T01:08:34.011Z,96135.00
2018-10-09T01:09:11.741Z,96137.00
2018-10-09T01:09:49.555Z,96138.00
2018-10-09T01:10:27.523Z,96137.00
2018-10-09T01:11:05.132Z,96135.00
2018-10-09T01:11:42.872Z,96138.00
2018-10-09T01:12:20.913Z,96137.00
2018-10-09T01:12:58.505Z,96141.00
2018-10-09T01:13:36.002Z,96138.00
2018-10-09T01:14:13.678Z,96139.00
2018-10-09T01:14:51.470Z,96137.00
2018-10-09T01:15:29.234Z,96138.00
2018-10-09T01:16:06.843Z,96138.00
2018-10-09T01:16:44.475Z,96137.00
2018-10-09T01:17:22.418Z,96137.00
2018-10-09T01:18:00.324Z,96138.00
2018-10-09T01:18:38.056Z,96139.00
2018-10-09T01:19:15.816Z,96138.00
2018-10-09T01:19:53.515Z,96138.00
2018-10-09T01:20:31.616Z,96136.00
2018-10-09T01:21:09.581Z,96138.00
2018-10-09T01:21:47.448Z,96136.00
2018-10-09T01:22:25.219Z,96138.00
2018-10-09T01:23:02.974Z,96134.00
2018-10-09T01:23:41.069Z,96132.00
2018-10-09T01:24:18.655Z,96129.00
2018-10-09T01:24:56.268Z,96139.00
2018-10-09T01:25:34.244Z,96135.00
2018-10-09T01:26:12.005Z,96140.00
2018-10-09T01:26:49.679Z,96135.00
2018-10-09T01:27:27.697Z,96137.00
2018-10-09T01:28:05.351Z,96137.00
2018-10-09T01:28:43.288Z,96135.00
2018-10-09T01:29:21.154Z,96136.00
2018-10-09T01:29:59.129Z,96137.00
2018-10-09T01:30:36.758Z,96138.00
2018-10-09T01:31:14.755Z,96139.00
2018-10-09T01:31:52.735Z,96142.00
2018-10-09T01:32:30.537Z,96138.00
2018-10-09T01:33:08.255Z,96135.00
2018-10-09T01:33:46.046Z,96138.00
2018-10-09T01:34:23.739Z,96139.00
2018-10-09T01:35:01.462Z,96138.00
2018-10-09T01:35:39.925Z,96138.00
2018-10-09T01:36:17.468Z,96141.00
2018-10-09T01:36:55.197Z,96143.00
2018-10-09T01:37:32.999Z,96142.00
2018-10-09T01:38:10.895Z,96142.00
2018-10-09T01:38:48.481Z,96140.00
2018-10-09T01:39:26.448Z,96136.00
2018-10-09T01:40:03.956Z,96138.00
2018-10-09T01:40:41.706Z,96139.00
2018-10-09T01:41:19.513Z,96143.00
2018-10-09T01:41:57.331Z,96144.00
2018-10-09T01:42:34.935Z,96146.00
2018-10-09T01:43:12.614Z,96143.00
2018-10-09T01:43:50.506Z,96141.00
2018-10-09T01:44:28.280Z,96145.00
2018-10-09T01:45:06.336Z,96150.00
2018-10-09T01:45:44.089Z,96145.00
2018-10-09T01:46:21.754Z,96147.00
2018-10-09T01:46:59.747Z,96144.00
2018-10-09T01:47:37.300Z,96144.00
2018-10-09T01:48:14.787Z,96147.00
2018-10-09T01:48:52.725Z,96151.00
2018-10-09T01:49:30.357Z,96151.00
2018-10-09T01:50:08.158Z,96144.00
2018-10-09T01:50:45.957Z,96145.00
2018-10-09T01:51:23.582Z,96142.00
2018-10-09T01:52:01.308Z,96143.00
2018-10-09T01:52:38.873Z,96143.00
2018-10-09T01:53:16.651Z,96145.00
2018-10-09T01:53:54.420Z,96146.00
2018-10-09T01:54:31.964Z,96147.00
2018-10-09T01:55:09.668Z,96147.00
2018-10-09T01:55:47.412Z,96145.00
2018-10-09T01:56:24.938Z,96144.00
2018-10-09T01:57:02.659Z,96142.00
2018-10-09T01:57:40.635Z,96139.00
2018-10-09T01:58:18.236Z,96147.00
2018-10-09T01:58:55.970Z,96142.00
2018-10-09T01:59:33.633Z,96141.00
2018-10-09T02:00:11.355Z,96141.00
2018-10-09T02:00:49.041Z,96141.00
2018-10-09T02:01:26.800Z,96148.00
2018-10-09T02:02:04.643Z,96144.00
2018-10-09T02:02:42.299Z,96146.00
2018-10-09T02:03:20.221Z,96140.00
2018-10-09T02:03:57.906Z,96138.00
2018-10-09T02:04:35.651Z,96136.00
2018-10-09T02:05:13.590Z,96139.00
2018-10-09T02:05:51.273Z,96137.00
2018-10-09T02:06:29.406Z,96140.00
2018-10-09T02:07:07.099Z,96138.00
2018-10-09T02:07:44.690Z,96139.00
2018-10-09T02:08:22.501Z,96143.00
2018-10-09T02:09:00.030Z,96140.00
2018-10-09T02:09:37.686Z,96145.00
2018-10-09T02:10:15.891Z,96142.00
2018-10-09T02:10:53.453Z,96147.00
2018-10-09T02:11:31.182Z,96143.00
2018-10-09T02:12:09.173Z,96147.00
2018-10-09T02:12:46.954Z,96141.00
2018-10-09T02:13:24.872Z,96141.00
2018-10-09T02:14:03.037Z,96151.00
2018-10-09T02:14:40.774Z,96140.00
2018-10-09T02:15:18.693Z,96146.00
2018-10-09T02:15:56.285Z,96150.00
2018-10-09T02:16:33.874Z,96145.00
2018-10-09T02:17:11.704Z,96147.00
2018-10-09T02:17:49.313Z,96141.00
2018-10-09T02:18:27.166Z,96152.00
2018-10-09T02:19:04.928Z,96151.00
2018-10-09T02:19:42.924Z,96150.00
2018-10-09T02:20:20.928Z,96149.00
2018-10-09T02:20:58.689Z,96152.00
2018-10-09T02:21:36.505Z,96145.00
2018-10-09T02:22:14.154Z,96145.00
2018-10-09T02:22:52.214Z,96142.00
2018-10-09T02:23:29.925Z,96143.00
2018-10-09T02:24:07.682Z,96139.00
2018-10-09T02:24:45.406Z,96139.00
2018-10-09T02:25:23.059Z,96139.00
2018-10-09T02:26:00.657Z,96137.00
2018-10-09T02:26:38.336Z,96138.00
2018-10-09T02:27:16.010Z,96134.00
2018-10-09T02:27:53.635Z,96136.00
2018-10-09T02:28:31.453Z,96140.00
2018-10-09T02:29:09.009Z,96135.00
2018-10-09T02:29:47.156Z,96134.00
2018-10-09T02:30:25.109Z,96136.00
2018-10-09T02:31:02.791Z,96137.00
2018-10-09T02:31:40.435Z,96137.00
2018-10-09T02:32:18.225Z,96136.00
2018-10-09T02:32:56.145Z,96133.00
2018-10-09T02:33:33.795Z,96139.00
2018-10-09T02:34:11.718Z,96134.00
2018-10-09T02:34:49.300Z,96136.00
2018-10-09T02:35:27.036Z,96133.00
2018-10-09T02:36:04.827Z,96136.00
2018-10-09T02:36:43.017Z,96134.00
2018-10-09T02:37:20.950Z,96137.00
2018-10-09T02:37:58.359Z,96137.00
2018-10-09T02:38:36.185Z,96133.00
2018-10-09T02:39:13.723Z,96136.00
2018-10-09T02:39:51.520Z,96134.00
2018-10-09T02:40:29.089Z,96131.00
2018-10-09T02:41:06.554Z,96131.00
2018-10-09T02:41:44.382Z,96134.00
2018-10-09T02:42:22.436Z,96130.00
2018-10-09T02:43:00.058Z,96128.00
2018-10-09T02:43:37.841Z,96134.00
2018-10-09T02:44:15.658Z,96130.00
2018-10-09T02:44:53.296Z,96134.00
2018-10-09T02:45:30.742Z,96124.00
2018-10-09T02:46:08.574Z,96131.00
2018-10-09T02:46:45.996Z,96129.00
2018-10-09T02:47:23.947Z,96130.00
2018-10-09T02:48:01.849Z,96129.00
2018-10-09T02:48:39.228Z,96135.00
2018-10-09T02:49:16.963Z,96131.00
2018-10-09T02:49:54.573Z,96132.00
2018-10-09T02:50:32.361Z,96129.00
2018-10-09T02:51:10.294Z,96131.00
2018-10-09T02:51:47.912Z,96131.00
2018-10-09T02:52:25.694Z,96131.00
2018-10-09T02:53:03.233Z,96129.00
2018-10-09T02:53:41.105Z,96128.00
2018-10-09T02:54:18.771Z,96126.00
2018-10-09T02:54:56.718Z,96124.00
2018-10-09T02:55:34.500Z,96120.00
2018-10-09T02:56:12.316Z,96123.00
2018-10-09T02:56:49.802Z,96124.00
2018-10-09T02:57:27.906Z,96122.00
2018-10-09T02:58:05.373Z,96118.00
2018-10-09T02:58:43.172Z,96122.00
2018-10-09T02:59:21.300Z,96121.00
2018-10-09T02:59:59.080Z,96125.00
2018-10-09T03:00:36.701Z,96120.00
2018-10-09T03:01:14.609Z,96121.00
2018-10-09T03:01:52.306Z,96123.00
2018-10-09T03:02:30.310Z,96117.00
2018-10-09T03:03:07.780Z,96121.00
2018-10-09T03:03:45.452Z,96118.00
2018-10-09T03:04:23.101Z,96123.00
2018-10-09T03:05:00.897Z,96119.00
2018-10-09T03:05:38.615Z,96116.00
2018-10-09T03:06:16.146Z,96118.00
2018-10-09T03:06:53.793Z,96115.00
2018-10-09T03:07:31.471Z,96116.00
2018-10-09T03:08:09.037Z,96110.00
2018-10-09T03:08:46.632Z,96114.00
2018-10-09T03:09:24.281Z,96111.00
2018-10-09T03:10:01.831Z,96112.00
2018-10-09T03:10:39.774Z,96113.00
2018-10-09T03:11:17.543Z,96111.00
2018-10-09T03:11:55.353Z,96113.00
2018-10-09T03:12:33.364Z,96112.00
2018-10-09T03:13:10.944Z,96116.00
2018-10-09T03:13:48.786Z,96114.00
2018-10-09T03:14:26.487Z,96117.00
2018-10-09T03:15:04.248Z,96113.00
2018-10-09T03:15:42.145Z,96116.00
2018-10-09T03:16:19.762Z,96114.00
2018-10-09T03:16:57.500Z,96123.00
2018-10-09T03:17:35.295Z,96118.00
2018-10-09T03:18:13.309Z,96121.00
2018-10-09T03:18:50.936Z,96123.00
2018-10-09T03:19:28.916Z,96122.00
2018-10-09T03:20:06.684Z,96120.00
2018-10-09T03:20:44.574Z,96120.00
2018-10-09T03:21:22.314Z,96122.00
2018-10-09T03:21:59.787Z,96119.00
2018-10-09T03:22:37.260Z,96119.00
2018-10-09T03:23:14.893Z,96120.00
2018-10-09T03:23:52.774Z,96114.00
2018-10-09T03:24:30.630Z,96114.00
2018-10-09T03:25:08.417Z,96119.00
2018-10-09T03:25:46.311Z,96115.00
2018-10-09T03:26:23.892Z,96114.00
2018-10-09T03:27:01.370Z,96114.00
2018-10-09T03:27:38.970Z,96120.00
2018-10-09T03:28:16.841Z,96115.00
2018-10-09T03:28:54.637Z,96111.00
2018-10-09T03:29:32.291Z,96113.00
2018-10-09T03:30:09.868Z,96113.00
2018-10-09T03:30:47.662Z,96110.00
2018-10-09T03:31:25.659Z,96117.00
2018-10-09T03:32:03.449Z,96108.00
2018-10-09T03:32:41.089Z,96109.00
2018-10-09T03:33:18.959Z,96110.00
2018-10-09T03:33:56.528Z,96109.00
2018-10-09T03:34:34.450Z,96108.00
2018-10-09T03:35:11.973Z,96111.00
2018-10-09T03:35:49.659Z,96110.00
2018-10-09T03:36:27.783Z,96112.00
2018-10-09T03:37:05.466Z,96111.00
2018-10-09T03:37:43.314Z,96116.00
2018-10-09T03:38:21.106Z,96112.00
2018-10-09T03:38:59.109Z,96113.00
2018-10-09T03:39:36.986Z,96111.00
2018-10-09T03:40:14.636Z,96107.00
2018-10-09T03:40:52.478Z,96111.00
2018-10-09T03:41:29.887Z,96110.00
2018-10-09T03:42:07.924Z,96112.00
2018-10-09T03:42:45.821Z,96115.00
2018-10-09T03:43:23.511Z,96112.00
2018-10-09T03:44:01.193Z,96111.00
2018-10-09T03:44:39.066Z,96114.00
2018-10-09T03:45:16.941Z,96113.00
2018-10-09T03:45:54.632Z,96117.00
2018-10-09T03:46:32.621Z,96113.00
2018-10-09T03:47:10.412Z,96117.00
2018-10-09T03:47:48.222Z,96117.00
2018-10-09T03:49:09.579Z,96118.00
2018-10-09T03:49:47.229Z,96120.00
2018-10-09T03:50:25.092Z,96118.00
2018-10-09T03:51:02.848Z,96117.00
2018-10-09T03:51:40.631Z,96119.00
2018-10-09T03:52:18.506Z,96122.00
2018-10-09T03:52:56.172Z,96120.00
2018-10-09T03:53:33.954Z,96120.00
2018-10-09T03:54:11.723Z,96124.00
2018-10-09T03:54:49.674Z,96123.00
2018-10-09T03:55:27.629Z,96124.00
2018-10-09T03:56:05.502Z,96126.00
2018-10-09T03:56:43.343Z,96124.00
2018-10-09T03:57:21.140Z,96124.00
2018-10-09T03:57:59.164Z,96123.00
2018-10-09T03:58:36.868Z,96122.00
2018-10-09T03:59:14.837Z,96124.00
2018-10-09T03:59:52.444Z,96129.00
2018-10-09T04:00:30.228Z,96127.00
2018-10-09T04:01:08.214Z,96132.00
2018-10-09T04:01:45.875Z,96127.00
2018-10-09T04:02:23.587Z,96131.00
2018-10-09T04:03:01.365Z,96134.00
2018-10-09T04:03:39.273Z,96136.00
2018-10-09T04:04:17.248Z,96138.00
2018-10-09T04:04:55.147Z,96133.00
2018-10-09T04:05:33.120Z,96133.00
2018-10-09T04:06:10.935Z,96137.00
2018-10-09T04:06:48.607Z,96137.00
2018-10-09T04:08:09.685Z,96140.00
2018-10-09T04:08:47.445Z,96146.00
2018-10-09T04:09:25.215Z,96146.00
2018-10-09T04:10:02.858Z,96146.00
2018-10-09T04:10:40.430Z,96153.00
2018-10-09T04:11:17.975Z,96146.00
2018-10-09T04:11:55.658Z,96154.00
2018-10-09T04:12:33.535Z,96152.00
2018-10-09T04:13:11.280Z,96148.00
2018-10-09T04:13:49.044Z,96152.00
2018-10-09T04:14:26.827Z,96149.00
2018-10-09T04:15:04.658Z,96146.00
2018-10-09T04:15:42.379Z,96146.00
2018-10-09T04:16:20.043Z,96150.00
2018-10-09T04:16:57.786Z,96151.00
2018-10-09T04:17:35.223Z,96148.00
2018-10-09T04:18:13.067Z,96147.00
2018-10-09T04:18:50.952Z,96149.00
2018-10-09T04:19:28.431Z,96147.00
2018-10-09T04:20:06.338Z,96150.00
2018-10-09T04:20:44.119Z,96147.00
2018-10-09T04:21:21.997Z,96150.00
2018-10-09T04:21:59.737Z,96156.00
2018-10-09T04:22:37.317Z,96154.00
2018-10-09T04:23:15.083Z,96148.00
2018-10-09T04:23:52.988Z,96154.00
2018-10-09T04:24:30.577Z,96155.00
2018-10-09T04:25:08.547Z,96150.00
2018-10-09T04:25:46.208Z,96154.00
2018-10-09T04:26:23.878Z,96147.00
2018-10-09T04:27:02.020Z,96151.00
2018-10-09T04:27:39.750Z,96151.00
2018-10-09T04:28:17.274Z,96152.00
2018-10-09T04:28:54.924Z,96151.00
2018-10-09T04:29:32.582Z,96152.00
2018-10-09T04:30:10.408Z,96146.00
2018-10-09T04:30:48.173Z,96149.00
2018-10-09T04:31:25.728Z,96146.00
2018-10-09T04:32:03.345Z,96144.00
2018-10-09T04:32:41.020Z,96145.00
2018-10-09T04:33:18.769Z,96145.00
2018-10-09T04:33:56.439Z,96142.00
2018-10-09T04:34:34.080Z,96141.00
2018-10-09T04:35:11.946Z,96144.00
2018-10-09T04:35:49.514Z,96145.00
2018-10-09T04:36:27.181Z,96147.00
2018-10-09T04:37:04.903Z,96145.00
2018-10-09T04:37:42.572Z,96145.00
2018-10-09T04:38:20.759Z,96149.00
2018-10-09T04:38:58.431Z,96153.00
2018-10-09T04:39:36.148Z,96143.00
2018-10-09T04:40:13.706Z,96146.00
2018-10-09T04:40:51.600Z,96147.00
2018-10-09T04:41:29.440Z,96147.00
2018-10-09T04:42:06.979Z,96148.00
2018-10-09T04:42:44.529Z,96149.00
2018-10-09T04:43:25.479Z,96134.00
2018-10-09T04:44:03.431Z,96140.00
2018-10-09T04:44:41.380Z,96139.00
2018-10-09T04:45:18.991Z,96144.00
2018-10-09T04:45:56.790Z,96139.00
2018-10-09T04:46:34.551Z,96142.00
2018-10-09T04:47:12.345Z,96139.00
2018-10-09T04:47:50.458Z,96137.00
2018-10-09T04:48:28.281Z,96140.00
2018-10-09T04:49:06.021Z,96143.00
2018-10-09T04:49:43.906Z,96143.00
2018-10-09T04:50:21.691Z,96134.00
2018-10-09T04:50:59.392Z,96139.00
2018-10-09T04:51:37.009Z,96137.00
2018-10-09T04:52:14.563Z,96137.00
2018-10-09T04:52:52.185Z,96137.00
2018-10-09T04:53:29.834Z,96139.00
2018-10-09T04:54:07.585Z,96142.00
2018-10-09T04:54:45.305Z,96141.00
2018-10-09T04:55:23.144Z,96144.00
2018-10-09T04:56:01.073Z,96142.00
2018-10-09T04:56:38.666Z,96148.00
2018-10-09T04:57:16.286Z,96152.00
2018-10-09T04:57:53.921Z,96151.00
2018-10-09T04:58:31.921Z,96153.00
2018-10-09T04:59:09.814Z,96154.00
2018-10-09T04:59:47.453Z,96151.00
2018-10-09T05:00:25.326Z,96150.00
2018-10-09T05:01:03.118Z,96149.00
2018-10-09T05:01:40.802Z,96153.00
2018-10-09T05:02:18.573Z,96151.00
2018-10-09T05:02:56.393Z,96151.00
2018-10-09T05:03:34.156Z,96145.00
2018-10-09T05:04:12.005Z,96149.00
2018-10-09T05:04:49.917Z,96143.00
2018-10-09T05:05:27.823Z,96146.00
2018-10-09T05:06:05.723Z,96142.00
2018-10-09T05:06:43.495Z,96149.00
2018-10-09T05:07:21.214Z,96143.00
2018-10-09T05:07:59.077Z,96138.00
2018-10-09T05:08:36.930Z,96145.00
2018-10-09T05:09:14.573Z,96149.00
2018-10-09T05:09:52.426Z,96144.00
2018-10-09T05:10:30.194Z,96151.00
2018-10-09T05:11:07.918Z,96147.00
2018-10-09T05:11:45.404Z,96152.00
2018-10-09T05:12:23.296Z,96150.00
2018-10-09T05:13:00.884Z,96151.00
2018-10-09T05:13:38.448Z,96151.00
2018-10-09T05:14:16.305Z,96153.00
2018-10-09T05:14:54.168Z,96152.00
2018-10-09T05:15:31.818Z,96153.00
2018-10-09T05:16:09.561Z,96149.00
2018-10-09T05:16:47.269Z,96148.00
2018-10-09T05:17:25.252Z,96145.00
2018-10-09T05:18:02.771Z,96152.00
2018-10-09T05:18:40.863Z,96149.00
2018-10-09T05:19:18.322Z,96147.00
2018-10-09T05:19:56.065Z,96157.00
2018-10-09T05:20:33.685Z,96149.00
2018-10-09T05:21:11.514Z,96151.00
2018-10-09T05:21:49.096Z,96151.00
2018-10-09T05:22:26.930Z,96153.00
2018-10-09T05:23:04.436Z,96149.00
2018-10-09T05:23:42.230Z,96151.00
2018-10-09T05:24:19.849Z,96153.00
2018-10-09T05:24:57.918Z,96156.00
2018-10-09T05:25:35.448Z,96158.00
2018-10-09T05:26:13.176Z,96155.00
2018-10-09T05:26:50.945Z,96157.00
2018-10-09T05:27:28.681Z,96154.00
2018-10-09T05:28:06.588Z,96156.00
2018-10-09T05:28:44.736Z,96157.00
2018-10-09T05:29:22.586Z,96161.00
2018-10-09T05:30:00.239Z,96163.00
2018-10-09T05:30:37.905Z,96159.00
2018-10-09T05:31:15.895Z,96164.00
2018-10-09T05:31:53.738Z,96159.00
2018-10-09T05:32:31.716Z,96158.00
2018-10-09T05:33:09.166Z,96162.00
2018-10-09T05:33:46.988Z,96163.00
2018-10-09T05:34:24.849Z,96157.00
2018-10-09T05:35:02.411Z,96156.00
2018-10-09T05:35:40.205Z,96155.00
2018-10-09T05:36:17.848Z,96158.00
2018-10-09T05:36:55.337Z,96158.00
2018-10-09T05:37:32.869Z,96154.00
2018-10-09T05:38:10.527Z,96155.00
2018-10-09T05:38:48.358Z,96154.00
2018-10-09T05:39:25.964Z,96152.00
2018-10-09T05:40:03.565Z,96155.00
2018-10-09T05:40:41.312Z,96151.00
2018-10-09T05:41:19.068Z,96154.00
2018-10-09T05:41:56.935Z,96150.00
2018-10-09T05:42:34.669Z,96153.00
2018-10-09T05:43:12.540Z,96151.00
2018-10-09T05:43:50.565Z,96151.00
2018-10-09T05:44:28.075Z,96151.00
2018-10-09T05:45:06.446Z,96146.00
2018-10-09T05:45:43.757Z,96146.00
2018-10-09T05:46:21.753Z,96140.00
2018-10-09T05:46:59.663Z,96148.00
2018-10-09T05:47:37.378Z,96141.00
2018-10-09T05:48:15.116Z,96140.00
2018-10-09T05:48:52.609Z,96136.00
2018-10-09T05:49:30.403Z,96137.00
2018-10-09T05:50:08.250Z,96135.00
2018-10-09T05:50:46.281Z,96139.00
2018-10-09T05:51:24.010Z,96134.00
2018-10-09T05:52:02.093Z,96141.00
2018-10-09T05:52:39.647Z,96140.00
2018-10-09T05:53:17.337Z,96133.00
2018-10-09T05:53:55.072Z,96133.00
2018-10-09T05:54:33.180Z,96136.00
2018-10-09T05:55:10.751Z,96135.00
2018-10-09T05:55:48.477Z,96135.00
2018-10-09T05:56:26.097Z,96140.00
2018-10-09T05:57:03.568Z,96146.00
2018-10-09T05:57:41.530Z,96140.00
2018-10-09T05:58:19.100Z,96146.00
2018-10-09T05:58:56.750Z,96145.00
2018-10-09T05:59:34.560Z,96147.00
2018-10-09T06:00:12.398Z,96152.00
2018-10-09T06:00:49.910Z,96146.00
2018-10-09T06:01:27.603Z,96147.00
2018-10-09T06:02:05.141Z,96150.00
2018-10-09T06:02:42.709Z,96151.00
2018-10-09T06:03:20.726Z,96154.00
2018-10-09T06:03:58.445Z,96150.00
2018-10-09T06:04:35.896Z,96146.00
2018-10-09T06:05:13.565Z,96152.00
2018-10-09T06:05:51.178Z,96148.00
2018-10-09T06:06:28.791Z,96140.00
2018-10-09T06:07:06.389Z,96138.00
2018-10-09T06:07:43.933Z,96139.00
2018-10-09T06:08:21.573Z,96140.00
2018-10-09T06:08:59.299Z,96142.00
2018-10-09T06:09:37.122Z,96139.00
2018-10-09T06:10:14.801Z,96140.00
2018-10-09T06:10:52.777Z,96143.00
2018-10-09T06:11:30.673Z,96141.00
2018-10-09T06:12:08.176Z,96143.00
2018-10-09T06:12:46.064Z,96142.00
2018-10-09T06:13:23.529Z,96140.00
2018-10-09T06:14:01.205Z,96146.00
2018-10-09T06:14:38.920Z,96144.00
2018-10-09T06:15:16.529Z,96146.00
2018-10-09T06:15:54.379Z,96147.00
2018-10-09T06:16:31.954Z,96144.00
2018-10-09T06:17:09.605Z,96147.00
2018-10-09T06:17:47.741Z,96153.00
2018-10-09T06:18:25.607Z,96151.00
2018-10-09T06:19:03.195Z,96150.00
2018-10-09T06:19:41.144Z,96152.00
2018-10-09T06:20:18.746Z,96154.00
2018-10-09T06:20:56.686Z,96156.00
2018-10-09T06:21:34.224Z,96157.00
2018-10-09T06:22:12.067Z,96154.00
2018-10-09T06:22:49.666Z,96157.00
2018-10-09T06:23:27.346Z,96159.00
2018-10-09T06:24:05.084Z,96160.00
2018-10-09T06:24:43.045Z,96160.00
2018-10-09T06:25:20.979Z,96158.00
2018-10-09T06:25:58.916Z,96158.00
2018-10-09T06:26:36.798Z,96155.00
2018-10-09T06:27:14.294Z,96159.00
2018-10-09T06:27:52.022Z,96149.00
2018-10-09T06:28:29.675Z,96157.00
2018-10-09T06:29:07.537Z,96153.00
2018-10-09T06:29:44.904Z,96151.00
2018-10-09T06:30:22.816Z,96158.00
2018-10-09T06:31:00.420Z,96157.00
2018-10-09T06:31:38.163Z,96157.00
2018-10-09T06:32:16.053Z,96155.00
2018-10-09T06:32:53.941Z,96159.00
2018-10-09T06:33:32.006Z,96160.00
2018-10-09T06:34:09.783Z,96160.00
2018-10-09T06:34:47.321Z,96165.00
2018-10-09T06:35:25.121Z,96166.00
2018-10-09T06:36:02.666Z,96162.00
2018-10-09T06:36:40.624Z,96167.00
2018-10-09T06:37:18.433Z,96162.00
2018-10-09T06:37:56.177Z,96165.00
2018-10-09T06:38:34.148Z,96169.00
2018-10-09T06:39:11.557Z,96164.00
2018-10-09T06:39:49.184Z,96170.00
2018-10-09T06:40:26.915Z,96168.00
2018-10-09T06:41:04.598Z,96176.00
2018-10-09T06:41:42.176Z,96169.00
2018-10-09T06:42:19.893Z,96170.00
2018-10-09T06:42:57.755Z,96172.00
2018-10-09T06:43:35.556Z,96173.00
2018-10-09T06:44:13.168Z,96176.00
2018-10-09T06:44:50.896Z,96172.00
2018-10-09T06:45:28.824Z,96177.00
2018-10-09T06:46:06.563Z,96181.00
2018-10-09T06:46:44.255Z,96177.00
2018-10-09T06:47:21.865Z,96181.00
2018-10-09T06:47:59.420Z,96182.00
2018-10-09T06:48:37.354Z,96180.00
2018-10-09T06:49:15.232Z,96178.00
2018-10-09T06:49:53.091Z,96184.00
2018-10-09T06:50:30.908Z,96183.00
2018-10-09T06:51:08.663Z,96182.00
2018-10-09T06:51:46.312Z,96182.00
2018-10-09T06:52:23.907Z,96180.00
2018-10-09T06:53:01.783Z,96183.00
2018-10-09T06:53:39.451Z,96182.00
2018-10-09T06:54:17.623Z,96183.00
2018-10-09T06:54:55.227Z,96182.00
2018-10-09T06:55:32.756Z,96181.00
2018-10-09T06:56:10.444Z,96181.00
2018-10-09T06:56:48.181Z,96181.00
2018-10-09T06:57:26.153Z,96178.00
2018-10-09T06:58:03.884Z,96178.00
2018-10-09T06:58:41.822Z,96182.00
2018-10-09T06:59:19.651Z,96181.00
2018-10-09T06:59:57.613Z,96184.00
2018-10-09T07:00:35.354Z,96186.00
2018-10-09T07:01:13.713Z,96187.00
2018-10-09T07:01:51.510Z,96189.00
2018-10-09T07:02:29.367Z,96190.00
2018-10-09T07:03:07.507Z,96194.00
2018-10-09T07:03:45.312Z,96195.00
2018-10-09T07:04:23.032Z,96198.00
2018-10-09T07:05:00.819Z,96199.00
2018-10-09T07:05:38.385Z,96199.00
2018-10-09T07:06:16.112Z,96201.00
2018-10-09T07:06:53.622Z,96206.00
2018-10-09T07:07:31.562Z,96201.00
2018-10-09T07:08:09.235Z,96205.00
2018-10-09T07:08:46.705Z,96208.00
2018-10-09T07:09:25.488Z,96212.00
2018-10-09T07:10:03.245Z,96210.00
2018-10-09T07:10:40.892Z,96205.00
2018-10-09T07:11:19.192Z,96215.00
2018-10-09T07:11:56.953Z,96218.00
2018-10-09T07:12:34.757Z,96213.00
2018-10-09T07:13:12.507Z,96211.00
2018-10-09T07:13:50.274Z,96214.00
2018-10-09T07:15:10.943Z,96215.00
2018-10-09T07:15:48.737Z,96222.00
2018-10-09T07:16:26.212Z,96217.00
2018-10-09T07:17:03.882Z,96215.00
2018-10-09T07:17:41.573Z,96217.00
2018-10-09T07:18:19.198Z,96212.00
2018-10-09T07:18:56.883Z,96218.00
2018-10-09T07:20:11.366Z,96211.00
2018-10-09T07:20:49.013Z,96213.00
2018-10-09T07:21:27.175Z,96213.00
2018-10-09T07:22:04.992Z,96212.00
2018-10-09T07:22:42.784Z,96216.00
2018-10-09T07:23:20.640Z,96212.00
2018-10-09T07:23:58.391Z,96205.00
2018-10-09T07:24:36.111Z,96208.00
2018-10-09T07:25:13.823Z,96215.00
2018-10-09T07:25:52.023Z,96208.00
2018-10-09T07:26:29.770Z,96210.00